createdAt,value
2022-12-01T00:00:12.365Z,40.5
2022-12-01T00:01:12.398Z,43.1429
2022-12-01T00:02:12.576Z,41.4286
2022-12-01T00:03:12.564Z,40.4286
2022-12-01T00:04:12.494Z,41.1429
2022-12-01T00:05:12.521Z,41.6429
2022-12-01T00:06:12.548Z,42.8571
2022-12-01T00:07:12.582Z,39.9286
2022-12-01T00:08:12.615Z,43.3571
2022-12-01T00:09:17.949Z,42.3571
2022-12-01T00:10:12.674Z,40.7143
2022-12-01T00:11:12.710Z,42.7143
2022-12-01T00:12:12.739Z,41.6429
2022-12-01T00:13:12.775Z,42.4286
2022-12-01T00:14:12.802Z,41.8571
2022-12-01T00:15:12.819Z,44.4286
2022-12-01T00:16:12.918Z,42.2143
2022-12-01T00:17:12.870Z,42.4286
2022-12-01T00:18:12.912Z,41.5
2022-12-01T00:19:12.938Z,43.2143
2022-12-01T00:20:12.963Z,43.5
2022-12-01T00:21:12.992Z,43.1429
2022-12-01T00:22:13.018Z,42.6429
2022-12-01T00:23:13.095Z,41.5
2022-12-01T00:24:13.102Z,43.7143
2022-12-01T00:25:13.132Z,43.7143
2022-12-01T00:26:13.164Z,43.8571
2022-12-01T00:27:13.193Z,43.4286
2022-12-01T00:28:13.241Z,43.1429
2022-12-01T00:29:13.274Z,44.6429
2022-12-01T00:30:13.299Z,42.6429
2022-12-01T00:31:13.321Z,44.5
2022-12-01T00:32:13.444Z,43.9286
2022-12-01T00:33:13.381Z,44.1429
2022-12-01T00:34:13.415Z,43.2143
2022-12-01T00:35:13.437Z,43.3571
2022-12-01T00:36:13.473Z,42.5
2022-12-01T00:37:13.501Z,41.7143
2022-12-01T00:38:13.535Z,43
2022-12-01T00:39:13.557Z,43
2022-12-01T00:40:13.590Z,43.4286
2022-12-01T00:41:13.613Z,41.6429
2022-12-01T00:42:13.742Z,45.5
2022-12-01T00:43:13.671Z,44.4286
2022-12-01T00:44:13.723Z,43.2143
2022-12-01T00:45:13.739Z,41.6429
2022-12-01T00:46:13.816Z,43.6429
2022-12-01T00:47:13.793Z,43.3571
2022-12-01T00:48:13.826Z,42.8571
2022-12-01T00:49:13.872Z,45.5
2022-12-01T00:50:13.890Z,44.2143
2022-12-01T00:51:13.915Z,42.3571
2022-12-01T00:52:13.944Z,43.9286
2022-12-01T00:53:13.984Z,43.9286
2022-12-01T00:54:14.035Z,43.1429
2022-12-01T00:55:14.040Z,41.9286
2022-12-01T00:56:14.066Z,42
2022-12-01T00:57:14.101Z,42.4286
2022-12-01T00:58:14.123Z,45.5
2022-12-01T00:59:14.180Z,42.4286
2022-12-01T01:00:14.193Z,41.1429
2022-12-01T01:01:14.305Z,44.4286
2022-12-01T01:02:14.289Z,43.6429
2022-12-01T01:03:14.282Z,44.2143
2022-12-01T01:04:14.312Z,43.6429
2022-12-01T01:05:14.347Z,44
2022-12-01T01:06:14.370Z,43.3571
2022-12-01T01:07:14.410Z,43.4286
2022-12-01T01:08:14.432Z,44.4286
2022-12-01T01:09:14.462Z,43.4286
2022-12-01T01:10:14.504Z,41.3571
2022-12-01T01:11:14.543Z,42
2022-12-01T01:12:14.570Z,41.5
2022-12-01T01:13:14.598Z,41.1429
2022-12-01T01:14:14.626Z,41.2143
2022-12-01T01:15:14.670Z,40.7143
2022-12-01T01:16:14.773Z,42.5
2022-12-01T01:17:14.727Z,43.5
2022-12-01T01:18:14.761Z,42.3571
2022-12-01T01:19:14.783Z,41.8571
2022-12-01T01:20:14.819Z,41.4286
2022-12-01T01:21:14.843Z,42.9286
2022-12-01T01:22:14.877Z,41.5
2022-12-01T01:23:14.913Z,40.5
2022-12-01T01:24:14.939Z,40.3571
2022-12-01T01:25:14.984Z,40.3571
2022-12-01T01:26:14.995Z,41.5
2022-12-01T01:27:15.041Z,40.3571
2022-12-01T01:28:15.065Z,39.1429
2022-12-01T01:29:15.087Z,40.6429
2022-12-01T01:30:15.133Z,43.3571
2022-12-01T01:31:15.233Z,40.6429
2022-12-01T01:32:15.184Z,39.5
2022-12-01T01:33:15.222Z,42
2022-12-01T01:34:15.246Z,42.1429
2022-12-01T01:35:15.273Z,44
2022-12-01T01:36:15.301Z,42.7143
2022-12-01T01:37:15.324Z,44.5
2022-12-01T01:38:15.367Z,44.1429
2022-12-01T01:39:15.409Z,40.7143
2022-12-01T01:40:15.428Z,40.5
2022-12-01T01:41:15.471Z,43
2022-12-01T01:42:15.499Z,43.1429
2022-12-01T01:43:15.532Z,42.8571
2022-12-01T01:44:15.560Z,42.3571
2022-12-01T01:45:15.592Z,42.7143
2022-12-01T01:46:15.710Z,41.6429
2022-12-01T01:47:15.644Z,43.7143
2022-12-01T01:48:15.677Z,41.2143
2022-12-01T01:49:15.709Z,43.5
2022-12-01T01:50:15.742Z,43.1429
2022-12-01T01:51:15.783Z,44
2022-12-01T01:52:15.797Z,42.4286
2022-12-01T01:53:15.829Z,43.7143
2022-12-01T01:54:15.882Z,42.3571
2022-12-01T01:55:15.902Z,43.8571
2022-12-01T01:56:15.920Z,41.4286
2022-12-01T01:57:15.957Z,43.5
2022-12-01T01:58:15.991Z,43.2143
2022-12-01T01:59:16.024Z,42.2143
2022-12-01T02:00:16.056Z,41.5
2022-12-01T02:01:16.187Z,40.9286
2022-12-01T02:02:16.255Z,41.6429
2022-12-01T02:03:16.155Z,41.8571
2022-12-01T02:04:16.188Z,41.9286
2022-12-01T02:05:16.219Z,41.8571
2022-12-01T02:06:16.252Z,40.3571
2022-12-01T02:07:16.321Z,39.9286
2022-12-01T02:08:16.317Z,40.1429
2022-12-01T02:09:16.351Z,39.1429
2022-12-01T02:10:16.375Z,39.7143
2022-12-01T02:11:16.407Z,37.3571
2022-12-01T02:12:16.456Z,38.3571
2022-12-01T02:13:16.473Z,38.3571
2022-12-01T02:14:16.502Z,38.1429
2022-12-01T02:15:16.532Z,38.8571
2022-12-01T02:16:16.634Z,37.9286
2022-12-01T02:17:16.598Z,36.9286
2022-12-01T02:18:16.629Z,36.5
2022-12-01T02:19:16.650Z,38.3571
2022-12-01T02:20:16.689Z,39.1429
2022-12-01T02:21:16.710Z,37.8571
2022-12-01T02:22:16.736Z,36.4286
2022-12-01T02:23:16.778Z,38.1429
2022-12-01T02:24:16.800Z,35.9286
2022-12-01T02:25:16.832Z,36
2022-12-01T02:26:16.862Z,38.2143
2022-12-01T02:27:16.903Z,38.2143
2022-12-01T02:28:16.962Z,36.7143
2022-12-01T02:29:16.967Z,37.7143
2022-12-01T02:30:17.001Z,37.5
2022-12-01T02:31:17.080Z,36.7143
2022-12-01T02:32:17.059Z,36.2143
2022-12-01T02:33:17.105Z,37.3571
2022-12-01T02:34:17.124Z,38.3571
2022-12-01T02:35:17.145Z,38.7143
2022-12-01T02:36:17.177Z,38
2022-12-01T02:37:17.207Z,38.8571
2022-12-01T02:38:17.239Z,38.9286
2022-12-01T02:39:17.268Z,38.8571
2022-12-01T02:40:17.293Z,39.1429
2022-12-01T02:41:17.323Z,37.3571
2022-12-01T02:42:17.357Z,38.3571
2022-12-01T02:43:17.380Z,37.7143
2022-12-01T02:44:17.414Z,36
2022-12-01T02:45:17.453Z,36.9286
2022-12-01T02:46:17.536Z,38.1429
2022-12-01T02:47:17.514Z,38
2022-12-01T02:48:17.547Z,38
2022-12-01T02:49:17.588Z,39.3571
2022-12-01T02:50:17.620Z,40.1429
2022-12-01T02:51:17.709Z,39.9286
2022-12-01T02:52:17.694Z,39.3571
2022-12-01T02:53:17.731Z,38.9286
2022-12-01T02:54:17.739Z,38.5
2022-12-01T02:55:17.786Z,39.5
2022-12-01T02:56:17.818Z,38.4286
2022-12-01T02:57:17.854Z,37.8571
2022-12-01T02:58:17.860Z,40.3571
2022-12-01T02:59:17.892Z,38.3571
2022-12-01T03:00:17.926Z,40.6429
2022-12-01T03:01:18.079Z,40.3571
2022-12-01T03:02:18.037Z,38.1429
2022-12-01T03:03:18.015Z,39.1429
2022-12-01T03:04:18.050Z,38.6429
2022-12-01T03:05:18.076Z,40.3571
2022-12-01T03:06:18.108Z,43.6429
2022-12-01T03:07:18.176Z,41.4286
2022-12-01T03:08:18.175Z,41.5
2022-12-01T03:09:18.203Z,39.8571
2022-12-01T03:10:18.232Z,41.1429
2022-12-01T03:11:18.263Z,40.7143
2022-12-01T03:12:18.304Z,37.9286
2022-12-01T03:13:18.327Z,38.3571
2022-12-01T03:14:18.355Z,39.3571
2022-12-01T03:15:18.387Z,39.1429
2022-12-01T03:16:18.502Z,40.7143
2022-12-01T03:17:18.436Z,40.5
2022-12-01T03:18:18.492Z,40.5
2022-12-01T03:19:18.502Z,39.2143
2022-12-01T03:20:18.527Z,42
2022-12-01T03:21:18.560Z,40
2022-12-01T03:22:18.601Z,40.9286
2022-12-01T03:23:18.628Z,41.8571
2022-12-01T03:24:18.656Z,39.6429
2022-12-01T03:25:18.699Z,41.1429
2022-12-01T03:26:18.728Z,40.6429
2022-12-01T03:27:18.748Z,41.2143
2022-12-01T03:28:21.584Z,42.3571
2022-12-01T03:29:18.806Z,41.8571
2022-12-01T03:30:18.844Z,41.9286
2022-12-01T03:31:18.944Z,41.4286
2022-12-01T03:32:18.909Z,40.5
2022-12-01T03:33:18.934Z,42.7143
2022-12-01T03:34:18.964Z,40.3571
2022-12-01T03:35:18.987Z,42.5
2022-12-01T03:36:19.017Z,42.2143
2022-12-01T03:37:19.043Z,41.5
2022-12-01T03:38:19.090Z,42.5
2022-12-01T03:39:19.102Z,43.4286
2022-12-01T03:40:19.135Z,40.7143
2022-12-01T03:41:19.169Z,41.5
2022-12-01T03:42:19.198Z,40.8571
2022-12-01T03:43:19.225Z,42.3571
2022-12-01T03:44:19.267Z,41.1429
2022-12-01T03:45:19.290Z,41.4286
2022-12-01T03:46:19.391Z,40.6429
2022-12-01T03:47:19.355Z,41.1429
2022-12-01T03:48:19.390Z,45.9286
2022-12-01T03:49:19.435Z,46.2143
2022-12-01T03:50:19.446Z,46.7143
2022-12-01T03:51:19.486Z,44.3571
2022-12-01T03:52:19.516Z,41.4286
2022-12-01T03:53:19.561Z,43.2143
2022-12-01T03:54:19.586Z,43
2022-12-01T03:55:19.621Z,41.7143
2022-12-01T03:56:19.644Z,43.3571
2022-12-01T03:57:19.668Z,42.4286
2022-12-01T03:58:19.696Z,40.7143
2022-12-01T03:59:19.733Z,40.3571
2022-12-01T04:00:19.757Z,41
2022-12-01T04:01:19.819Z,41.5
2022-12-01T04:02:19.833Z,39.1429
2022-12-01T04:03:19.917Z,39.4286
2022-12-01T04:04:19.879Z,41.9286
2022-12-01T04:05:23.852Z,38.3571
2022-12-01T04:06:19.943Z,38.1429
2022-12-01T04:07:20.032Z,40.3571
2022-12-01T04:08:20.007Z,40.2143
2022-12-01T04:09:20.043Z,40.1429
2022-12-01T04:10:20.071Z,38.3571
2022-12-01T04:11:20.103Z,39.9286
2022-12-01T04:12:20.136Z,38.7143
2022-12-01T04:13:20.166Z,40.6429
2022-12-01T04:14:20.172Z,40.7143
2022-12-01T04:15:20.192Z,39.5
2022-12-01T04:16:20.323Z,40
2022-12-01T04:17:20.245Z,40.5
2022-12-01T04:18:20.279Z,40.7143
2022-12-01T04:19:20.308Z,40.8571
2022-12-01T04:20:20.336Z,38.3571
2022-12-01T04:21:20.366Z,41.7143
2022-12-01T04:22:20.392Z,39.5
2022-12-01T04:23:20.420Z,39.5
2022-12-01T04:24:20.455Z,40.1429
2022-12-01T04:25:20.487Z,40.4286
2022-12-01T04:26:20.527Z,41.4286
2022-12-01T04:27:20.561Z,42.6429
2022-12-01T04:28:20.612Z,40.7143
2022-12-01T04:29:20.627Z,41.8571
2022-12-01T04:30:20.659Z,39.6429
2022-12-01T04:31:20.708Z,38.9286
2022-12-01T04:32:20.729Z,39
2022-12-01T04:33:20.773Z,41.4286
2022-12-01T04:34:20.798Z,41.6429
2022-12-01T04:35:20.814Z,41.7143
2022-12-01T04:36:20.852Z,41.1429
2022-12-01T04:37:20.886Z,39.5
2022-12-01T04:38:20.920Z,39.9286
2022-12-01T04:39:20.943Z,40.9286
2022-12-01T04:40:20.980Z,43
2022-12-01T04:41:21.014Z,41.8571
2022-12-01T04:42:21.046Z,42.4286
2022-12-01T04:43:21.112Z,41.8571
2022-12-01T04:44:21.109Z,41.6429
2022-12-01T04:45:21.130Z,42
2022-12-01T04:46:21.263Z,40.6429
2022-12-01T04:47:21.202Z,43.2143
2022-12-01T04:48:21.250Z,43.1429
2022-12-01T04:49:21.261Z,39.8571
2022-12-01T04:50:21.290Z,43.6429
2022-12-01T04:51:21.326Z,42
2022-12-01T04:52:21.340Z,40.2143
2022-12-01T04:53:21.366Z,41.1429
2022-12-01T04:54:21.399Z,41.8571
2022-12-01T04:55:21.423Z,42.3571
2022-12-01T04:56:21.459Z,42.2143
2022-12-01T04:57:21.495Z,40.2143
2022-12-01T04:58:21.529Z,42.3571
2022-12-01T04:59:21.556Z,40.5
2022-12-01T05:00:21.593Z,39.3571
2022-12-01T05:01:21.694Z,43.1429
2022-12-01T05:02:21.715Z,42.1429
2022-12-01T05:03:21.690Z,44.3571
2022-12-01T05:04:21.733Z,43.6429
2022-12-01T05:05:21.746Z,43.5
2022-12-01T05:06:21.784Z,42.5
2022-12-01T05:07:21.886Z,41.2143
2022-12-01T05:08:21.849Z,41.8571
2022-12-01T05:09:21.899Z,43.6429
2022-12-01T05:10:21.916Z,43.5
2022-12-01T05:11:21.953Z,42
2022-12-01T05:12:21.988Z,41
2022-12-01T05:13:22.029Z,42.4286
2022-12-01T05:14:22.090Z,43.9286
2022-12-01T05:15:22.080Z,43.5
2022-12-01T05:16:22.144Z,44.7143
2022-12-01T05:17:22.147Z,45.7143
2022-12-01T05:18:22.215Z,43.9286
2022-12-01T05:19:22.218Z,43.2143
2022-12-01T05:20:22.226Z,44.3571
2022-12-01T05:21:22.270Z,44
2022-12-01T05:22:42.602Z,42.6429
2022-12-01T05:23:22.325Z,44.9286
2022-12-01T05:24:22.361Z,44
2022-12-01T05:25:22.382Z,44.7143
2022-12-01T05:26:22.407Z,45.2143
2022-12-01T05:27:22.439Z,43.9286
2022-12-01T05:28:22.478Z,42.6429
2022-12-01T05:29:22.502Z,45.4286
2022-12-01T05:30:27.072Z,44.1429
2022-12-01T05:31:22.585Z,44.2143
2022-12-01T05:32:22.592Z,43.6429
2022-12-01T05:33:22.632Z,43
2022-12-01T05:34:22.662Z,43.1429
2022-12-01T05:35:22.673Z,47
2022-12-01T05:36:22.695Z,45.8571
2022-12-01T05:37:22.735Z,44.7143
2022-12-01T05:38:22.762Z,45.9286
2022-12-01T05:39:22.791Z,45.1429
2022-12-01T05:40:22.835Z,43.3571
2022-12-01T05:41:22.861Z,46.6429
2022-12-01T05:42:22.895Z,47.4286
2022-12-01T05:43:28.607Z,45.1429
2022-12-01T05:44:22.958Z,45.6429
2022-12-01T05:45:22.992Z,45.7143
2022-12-01T05:46:23.096Z,44.8571
2022-12-01T05:47:23.059Z,47.8571
2022-12-01T05:48:23.086Z,47.8571
2022-12-01T05:49:23.124Z,48.6429
2022-12-01T05:50:23.156Z,43.9286
2022-12-01T05:51:23.191Z,43.8571
2022-12-01T05:52:23.221Z,44.4286
2022-12-01T05:53:23.272Z,45.5
2022-12-01T05:54:23.277Z,45.5
2022-12-01T05:55:23.313Z,45.9286
2022-12-01T05:56:23.353Z,46.2143
2022-12-01T05:57:23.363Z,45
2022-12-01T05:58:23.407Z,45.6429
2022-12-01T05:59:23.435Z,44.6429
2022-12-01T06:00:23.470Z,45.6429
2022-12-01T06:01:23.532Z,49.4286
2022-12-01T06:02:23.754Z,48.4286
2022-12-01T06:03:23.566Z,45.7143
2022-12-01T06:04:23.686Z,44.1429
2022-12-01T06:05:23.632Z,45.2143
2022-12-01T06:06:23.664Z,48.7143
2022-12-01T06:07:23.714Z,48.3571
2022-12-01T06:08:23.726Z,50.9286
2022-12-01T06:09:23.751Z,48.3571
2022-12-01T06:10:23.783Z,46.6429
2022-12-01T06:11:23.814Z,45.6429
2022-12-01T06:12:23.834Z,43.7143
2022-12-01T06:13:23.864Z,44.9286
2022-12-01T06:14:23.893Z,44.5
2022-12-01T06:15:23.938Z,42.8571
2022-12-01T06:16:24.049Z,44.3571
2022-12-01T06:17:24.001Z,43.5
2022-12-01T06:18:24.031Z,44.7143
2022-12-01T06:19:24.057Z,44.9286
2022-12-01T06:20:24.083Z,43.4286
2022-12-01T06:21:24.111Z,45.3571
2022-12-01T06:22:24.151Z,44.9286
2022-12-01T06:23:28.931Z,45.1429
2022-12-01T06:24:24.206Z,43.1429
2022-12-01T06:25:24.237Z,42.2143
2022-12-01T06:26:24.267Z,42.4286
2022-12-01T06:27:24.312Z,44.5
2022-12-01T06:28:24.342Z,44.6429
2022-12-01T06:29:24.530Z,44.4286
2022-12-01T06:30:24.411Z,42.9286
2022-12-01T06:31:24.506Z,43.4286
2022-12-01T06:32:24.496Z,44.1429
2022-12-01T06:33:24.497Z,42.7143
2022-12-01T06:34:24.526Z,44.1429
2022-12-01T06:35:24.571Z,44.6429
2022-12-01T06:36:24.596Z,44.7143
2022-12-01T06:37:24.633Z,43.3571
2022-12-01T06:38:24.636Z,41.6429
2022-12-01T06:39:24.662Z,44.9286
2022-12-01T06:40:24.699Z,44.2143
2022-12-01T06:41:24.719Z,46.6429
2022-12-01T06:42:24.755Z,44.4286
2022-12-01T06:43:24.785Z,45.1429
2022-12-01T06:44:24.822Z,44
2022-12-01T06:45:24.848Z,44.3571
2022-12-01T06:46:24.929Z,43.5
2022-12-01T06:47:24.915Z,44
2022-12-01T06:48:24.953Z,45.4286
2022-12-01T06:49:24.979Z,44.9286
2022-12-01T06:50:25.033Z,45.7143
2022-12-01T06:51:25.040Z,44.4286
2022-12-01T06:52:25.060Z,44.9286
2022-12-01T06:53:25.093Z,44.6429
2022-12-01T06:54:25.115Z,46.6429
2022-12-01T06:55:25.154Z,44.3571
2022-12-01T06:56:25.184Z,45.8571
2022-12-01T06:57:25.216Z,46.2143
2022-12-01T06:58:25.260Z,45
2022-12-01T06:59:25.264Z,45.3571
2022-12-01T07:00:25.299Z,45.3571
2022-12-01T07:01:25.410Z,46.9286
2022-12-01T07:02:25.441Z,46.8571
2022-12-01T07:03:25.429Z,45.8571
2022-12-01T07:04:25.422Z,47.6429
2022-12-01T07:05:25.456Z,48.1429
2022-12-01T07:06:25.487Z,49.2143
2022-12-01T07:07:25.578Z,46.5
2022-12-01T07:08:25.565Z,50.2143
2022-12-01T07:09:25.576Z,49.2143
2022-12-01T07:10:25.595Z,48.5
2022-12-01T07:11:25.636Z,50.1429
2022-12-01T07:12:25.659Z,46.6429
2022-12-01T07:13:30.078Z,49.6429
2022-12-01T07:14:25.715Z,46.8571
2022-12-01T07:15:25.747Z,47.5
2022-12-01T07:16:25.807Z,48.4286
2022-12-01T07:17:25.800Z,48
2022-12-01T07:18:25.833Z,47.5
2022-12-01T07:19:25.865Z,47.2143
2022-12-01T07:20:25.884Z,45.7143
2022-12-01T07:21:25.917Z,46.8571
2022-12-01T07:22:32.246Z,46.9286
2022-12-01T07:23:25.974Z,48.6429
2022-12-01T07:24:26.009Z,49.7143
2022-12-01T07:25:26.050Z,48
2022-12-01T07:26:26.078Z,45.7143
2022-12-01T07:27:26.103Z,46.5
2022-12-01T07:28:26.137Z,46.7143
2022-12-01T07:29:26.177Z,48.1429
2022-12-01T07:30:28.821Z,47
2022-12-01T07:31:26.273Z,46.5
2022-12-01T07:32:26.268Z,46
2022-12-01T07:33:26.296Z,46.6429
2022-12-01T07:34:26.351Z,46.4286
2022-12-01T07:35:26.368Z,47.5
2022-12-01T07:36:26.406Z,45.4286
2022-12-01T07:37:26.432Z,48.2143
2022-12-01T07:38:26.457Z,46.1429
2022-12-01T07:39:26.497Z,46.5
2022-12-01T07:40:26.588Z,47.6429
2022-12-01T07:41:26.537Z,45.7143
2022-12-01T07:42:26.576Z,45.9286
2022-12-01T07:43:26.610Z,46.1429
2022-12-01T07:44:26.631Z,44.7143
2022-12-01T07:45:26.655Z,45.2143
2022-12-01T07:46:26.858Z,43.7143
2022-12-01T07:47:26.708Z,45.6429
2022-12-01T07:48:26.740Z,44.8571
2022-12-01T07:49:26.781Z,46.4286
2022-12-01T07:50:26.874Z,45.4286
2022-12-01T07:51:26.822Z,44.5
2022-12-01T07:52:26.858Z,46.5
2022-12-01T07:53:26.895Z,45
2022-12-01T07:54:26.926Z,43.8571
2022-12-01T07:55:27.001Z,46.5
2022-12-01T07:56:26.995Z,47.7143
2022-12-01T07:57:27.030Z,45.2143
2022-12-01T07:58:27.057Z,46.6429
2022-12-01T07:59:27.082Z,46.8571
2022-12-01T08:00:27.135Z,46.3571
2022-12-01T08:01:27.253Z,45.2143
2022-12-01T08:02:27.210Z,47
2022-12-01T08:03:27.224Z,45.9286
2022-12-01T08:04:27.234Z,44.8571
2022-12-01T08:05:27.263Z,45.1429
2022-12-01T08:06:27.299Z,46.6429
2022-12-01T08:07:30.002Z,47.5
2022-12-01T08:08:27.358Z,43.7143
2022-12-01T08:09:27.396Z,46.6429
2022-12-01T08:10:27.421Z,46.4286
2022-12-01T08:11:27.452Z,47.3571
2022-12-01T08:12:27.482Z,47.7143
2022-12-01T08:13:27.518Z,46.3571
2022-12-01T08:14:27.552Z,48.7143
2022-12-01T08:15:27.606Z,46.7143
2022-12-01T08:16:27.610Z,46.4286
2022-12-01T08:17:27.644Z,46
2022-12-01T08:18:27.680Z,48.4286
2022-12-01T08:19:27.701Z,47.9286
2022-12-01T08:20:27.878Z,47.8571
2022-12-01T08:21:27.774Z,46.8571
2022-12-01T08:22:27.805Z,47.1429
2022-12-01T08:23:27.834Z,46
2022-12-01T08:24:27.861Z,45.6429
2022-12-01T08:25:27.894Z,48.3571
2022-12-01T08:26:27.940Z,46.7143
2022-12-01T08:27:27.947Z,48.8571
2022-12-01T08:28:27.978Z,47.8571
2022-12-01T08:29:28.017Z,46.9286
2022-12-01T08:30:28.046Z,46.4286
2022-12-01T08:31:28.144Z,46.7143
2022-12-01T08:32:28.101Z,48.1429
2022-12-01T08:33:28.135Z,47.7143
2022-12-01T08:34:28.154Z,46.6429
2022-12-01T08:35:28.189Z,48.2143
2022-12-01T08:36:28.214Z,47.7143
2022-12-01T08:37:28.233Z,46.5
2022-12-01T08:38:28.272Z,47.5
2022-12-01T08:39:28.296Z,48.1429
2022-12-01T08:40:28.334Z,50.1429
2022-12-01T08:41:28.365Z,47.4286
2022-12-01T08:42:28.393Z,48.1429
2022-12-01T08:43:49.979Z,49.5
2022-12-01T08:44:28.530Z,49
2022-12-01T08:45:28.489Z,48.9286
2022-12-01T08:46:28.560Z,49.2143
2022-12-01T08:47:28.552Z,50.3571
2022-12-01T08:48:28.598Z,51.8571
2022-12-01T08:49:28.628Z,50.8571
2022-12-01T08:50:28.717Z,53.3571
2022-12-01T08:51:28.679Z,51.3571
2022-12-01T08:52:28.776Z,51.5
2022-12-01T08:53:28.731Z,51.8571
2022-12-01T08:54:28.755Z,52.1429
2022-12-01T08:55:28.793Z,52.5
2022-12-01T08:56:28.823Z,51.3571
2022-12-01T08:57:28.880Z,53.1429
2022-12-01T08:58:28.877Z,51.6429
2022-12-01T08:59:28.902Z,55.9286
2022-12-01T09:00:28.930Z,51
2022-12-01T09:01:29.023Z,51.3571
2022-12-01T09:02:29.186Z,51.3571
2022-12-01T09:03:29.014Z,53.1429
2022-12-01T09:04:29.053Z,51.4286
2022-12-01T09:05:29.077Z,53.4286
2022-12-01T09:06:29.119Z,52.6429
2022-12-01T09:07:29.233Z,54.4286
2022-12-01T09:08:29.187Z,53.5
2022-12-01T09:09:29.216Z,54.7143
2022-12-01T09:10:29.254Z,54.6429
2022-12-01T09:11:29.285Z,55.4286
2022-12-01T09:12:29.311Z,55.5
2022-12-01T09:13:29.326Z,57.4286
2022-12-01T09:14:29.359Z,56.8571
2022-12-01T09:15:29.385Z,56.1429
2022-12-01T09:16:29.553Z,58
2022-12-01T09:17:29.437Z,56.9286
2022-12-01T09:18:29.471Z,56.6429
2022-12-01T09:19:29.516Z,56.7143
2022-12-01T09:20:29.548Z,57.2143
2022-12-01T09:21:29.607Z,61.5
2022-12-01T09:22:29.601Z,60.2143
2022-12-01T09:23:29.633Z,58
2022-12-01T09:24:29.658Z,60.6429
2022-12-01T09:25:29.695Z,59.8571
2022-12-01T09:26:29.741Z,60.4286
2022-12-01T09:27:29.755Z,58.5
2022-12-01T09:28:29.786Z,57.2143
2022-12-01T09:29:29.822Z,58.2143
2022-12-01T09:30:29.855Z,59.9286
2022-12-01T09:31:29.958Z,58.5
2022-12-01T09:32:29.951Z,59.4286
2022-12-01T09:33:29.934Z,56.8571
2022-12-01T09:34:29.968Z,60.3571
2022-12-01T09:35:30.001Z,61.2143
2022-12-01T09:36:30.026Z,61.1429
2022-12-01T09:37:30.105Z,60.6429
2022-12-01T09:38:30.085Z,62.2143
2022-12-01T09:39:30.121Z,60.4286
2022-12-01T09:40:30.158Z,59.7143
2022-12-01T09:41:30.192Z,62
2022-12-01T09:42:35.199Z,59.3571
2022-12-01T09:43:30.279Z,61.8571
2022-12-01T09:44:30.317Z,61.1429
2022-12-01T09:45:30.337Z,60.6429
2022-12-01T09:46:30.406Z,62.7143
2022-12-01T09:47:30.397Z,62.2143
2022-12-01T09:48:30.443Z,61.2143
2022-12-01T09:49:30.464Z,60.3571
2022-12-01T09:50:30.494Z,61.8571
2022-12-01T09:51:30.520Z,59.7143
2022-12-01T09:52:30.559Z,57.9286
2022-12-01T09:53:30.594Z,59.5
2022-12-01T09:54:30.625Z,59.3571
2022-12-01T09:55:30.658Z,56.2143
2022-12-01T09:56:30.690Z,57.2143
2022-12-01T09:57:30.714Z,57.4286
2022-12-01T09:58:30.759Z,56.1429
2022-12-01T09:59:30.785Z,58.4286
2022-12-01T10:00:30.847Z,56.7143
2022-12-01T10:01:30.895Z,61.5
2022-12-01T10:02:30.912Z,59.1429
2022-12-01T10:03:30.891Z,54.8571
2022-12-01T10:04:30.936Z,59
2022-12-01T10:05:30.990Z,55.6429
2022-12-01T10:06:31.050Z,56.1429
2022-12-01T10:07:31.079Z,54.3571
2022-12-01T10:08:31.058Z,56
2022-12-01T10:09:31.085Z,57.4286
2022-12-01T10:10:31.117Z,57.9286
2022-12-01T10:11:31.156Z,59
2022-12-01T10:12:31.188Z,56.5
2022-12-01T10:13:31.215Z,57.2143
2022-12-01T10:14:31.243Z,57.3571
2022-12-01T10:15:31.327Z,57.4286
2022-12-01T10:16:31.348Z,55.6429
2022-12-01T10:17:31.340Z,56.8571
2022-12-01T10:18:31.377Z,58.5
2022-12-01T10:19:31.405Z,57.2143
2022-12-01T10:20:31.454Z,57.7143
2022-12-01T10:21:31.495Z,56.8571
2022-12-01T10:22:31.497Z,57.9286
2022-12-01T10:23:31.529Z,56.8571
2022-12-01T10:24:31.559Z,56.2143
2022-12-01T10:25:31.586Z,57.8571
2022-12-01T10:26:31.670Z,58.1429
2022-12-01T10:27:31.651Z,56.9286
2022-12-01T10:28:31.683Z,58.9286
2022-12-01T10:29:31.709Z,56.2143
2022-12-01T10:30:31.743Z,58
2022-12-01T10:31:31.836Z,57.4286
2022-12-01T10:32:31.811Z,56.8571
2022-12-01T10:33:31.840Z,58.5
2022-12-01T10:34:31.878Z,59.4286
2022-12-01T10:35:31.908Z,59.1429
2022-12-01T10:36:31.939Z,60.2143
2022-12-01T10:37:32.017Z,60.4286
2022-12-01T10:38:32.002Z,58.5
2022-12-01T10:39:32.031Z,60.5
2022-12-01T10:40:32.066Z,62.5
2022-12-01T10:41:32.093Z,60.2143
2022-12-01T10:42:32.223Z,60.4286
2022-12-01T10:43:32.149Z,59.4286
2022-12-01T10:44:32.183Z,61.5
2022-12-01T10:45:32.302Z,59.9286
2022-12-01T10:46:32.253Z,59.5
2022-12-01T10:47:32.295Z,63.9286
2022-12-01T10:48:32.310Z,63.4286
2022-12-01T10:49:32.341Z,61
2022-12-01T10:50:32.370Z,62.8571
2022-12-01T10:51:32.396Z,63.5
2022-12-01T10:52:32.431Z,63.1429
2022-12-01T10:53:32.472Z,61.5
2022-12-01T10:54:32.497Z,64.3571
2022-12-01T10:55:32.531Z,62.4286
2022-12-01T10:56:32.571Z,63.5
2022-12-01T10:57:32.588Z,63.1429
2022-12-01T10:58:32.614Z,63.4286
2022-12-01T10:59:32.645Z,62.9286
2022-12-01T11:00:57.958Z,63.2143
2022-12-01T11:01:32.817Z,64.1429
2022-12-01T11:02:32.901Z,64.2143
2022-12-01T11:03:33.016Z,62.8571
2022-12-01T11:04:32.801Z,62.4286
2022-12-01T11:05:32.831Z,65.1429
2022-12-01T11:06:32.864Z,64.1429
2022-12-01T11:07:32.969Z,60.3571
2022-12-01T11:08:32.937Z,62
2022-12-01T11:09:32.965Z,61.9286
2022-12-01T11:10:33.003Z,61.1429
2022-12-01T11:11:33.033Z,61.1429
2022-12-01T11:12:33.072Z,61.5
2022-12-01T11:13:33.146Z,60.9286
2022-12-01T11:14:33.134Z,59.6429
2022-12-01T11:15:33.163Z,59.1429
2022-12-01T11:16:33.244Z,57.5
2022-12-01T11:17:33.228Z,58.2143
2022-12-01T11:18:33.381Z,57.2143
2022-12-01T11:19:33.355Z,58.5
2022-12-01T11:20:33.359Z,57
2022-12-01T11:21:33.359Z,57.7143
2022-12-01T11:22:33.393Z,54.8571
2022-12-01T11:23:33.420Z,56.6429
2022-12-01T11:24:33.440Z,57.2143
2022-12-01T11:25:33.476Z,56.7143
2022-12-01T11:26:33.508Z,56.5
2022-12-01T11:27:33.535Z,55.9286
2022-12-01T11:28:33.576Z,56.1429
2022-12-01T11:29:33.605Z,52.3571
2022-12-01T11:30:33.648Z,55
2022-12-01T11:31:33.705Z,54.8571
2022-12-01T11:32:33.711Z,53.9286
2022-12-01T11:33:33.733Z,54.9286
2022-12-01T11:34:33.769Z,55.8571
2022-12-01T11:35:33.793Z,53.6429
2022-12-01T11:36:33.825Z,53.4286
2022-12-01T11:37:33.852Z,51.4286
2022-12-01T11:38:33.887Z,53.8571
2022-12-01T11:39:33.910Z,53.6429
2022-12-01T11:40:33.942Z,55.4286
2022-12-01T11:41:33.987Z,54.1429
2022-12-01T11:42:34.004Z,54.9286
2022-12-01T11:43:34.032Z,50.5
2022-12-01T11:48:34.163Z,55.1429
2022-12-01T11:49:34.228Z,53
2022-12-01T11:50:34.239Z,50.8571
2022-12-01T11:51:34.266Z,50.4286
2022-12-01T11:52:34.294Z,50.6429
2022-12-01T11:53:34.580Z,51.2143
2022-12-01T11:54:34.368Z,50.9286
2022-12-01T11:55:34.390Z,49.7143
2022-12-01T11:56:34.423Z,49.7143
2022-12-01T11:57:35.262Z,51.1429
2022-12-01T11:58:34.799Z,50.4286
2022-12-01T11:59:34.516Z,51.4286
2022-12-01T12:00:34.556Z,50.8571
2022-12-01T12:01:34.588Z,52.9286
2022-12-01T12:02:34.684Z,50.9286
2022-12-01T12:03:34.661Z,50
2022-12-01T12:04:34.665Z,51
2022-12-01T12:05:34.695Z,52
2022-12-01T12:06:40.557Z,50.2143
2022-12-01T12:07:34.805Z,51.8571
2022-12-01T12:08:34.867Z,48.6429
2022-12-01T12:09:34.807Z,50.7143
2022-12-01T12:10:34.907Z,50.4286
2022-12-01T12:11:34.879Z,50.2143
2022-12-01T12:12:34.901Z,50.1429
2022-12-01T12:13:34.930Z,48.9286
2022-12-01T12:14:34.959Z,50.1429
2022-12-01T12:15:34.989Z,50.8571
2022-12-01T12:16:35.025Z,47.3571
2022-12-01T12:17:35.109Z,47.8571
2022-12-01T12:18:35.099Z,50
2022-12-01T12:20:00.109Z,48.9286
2022-12-01T12:20:35.150Z,49.5
2022-12-01T12:21:35.173Z,50.3571
2022-12-01T12:22:35.221Z,49.3571
2022-12-01T12:23:35.227Z,49.3571
2022-12-01T12:24:35.261Z,49.3571
2022-12-01T12:25:35.298Z,50.1429
2022-12-01T12:26:35.315Z,49.4286
2022-12-01T12:27:35.362Z,47.8571